createdAt,value
2023-03-11T00:00:28.612Z,99.99
2023-03-11T00:01:28.721Z,99.99
2023-03-11T00:02:28.670Z,99.99
2023-03-11T00:03:28.646Z,99.99
2023-03-11T00:04:28.536Z,99.99
2023-03-11T00:05:28.845Z,99.99
2023-03-11T00:06:29.124Z,99.99
2023-03-11T00:07:28.525Z,99.99
2023-03-11T00:08:28.832Z,99.99
2023-03-11T00:09:28.513Z,99.99
2023-03-11T00:10:30.122Z,99.99
2023-03-11T00:11:28.489Z,99.99
2023-03-11T00:12:28.624Z,99.99
2023-03-11T00:13:28.878Z,99.99
2023-03-11T00:14:28.466Z,99.99
2023-03-11T00:15:28.589Z,99.99
2023-03-11T00:16:28.721Z,99.99
2023-03-11T00:17:28.411Z,99.99
2023-03-11T00:18:28.369Z,99.99
2023-03-11T00:19:28.408Z,99.99
2023-03-11T00:20:28.575Z,99.99
2023-03-11T00:21:28.437Z,99.99
2023-03-11T00:22:28.383Z,99.99
2023-03-11T00:23:28.401Z,99.99
2023-03-11T00:24:28.373Z,99.99
2023-03-11T00:25:28.562Z,99.99
2023-03-11T00:26:28.319Z,99.99
2023-03-11T00:27:28.428Z,99.99
2023-03-11T00:28:28.377Z,99.99
2023-03-11T00:29:28.354Z,99.99
2023-03-11T00:30:28.310Z,99.99
2023-03-11T00:31:28.269Z,99.99
2023-03-11T00:32:28.663Z,99.99
2023-03-11T00:33:28.391Z,99.99
2023-03-11T00:34:28.275Z,99.99
2023-03-11T00:35:28.885Z,99.99
2023-03-11T00:36:28.276Z,99.99
2023-03-11T00:37:28.256Z,99.99
2023-03-11T00:38:28.247Z,99.99
2023-03-11T00:39:28.232Z,99.99
2023-03-11T00:40:28.393Z,99.99
2023-03-11T00:41:28.198Z,99.99
2023-03-11T00:42:28.176Z,99.99
2023-03-11T00:43:28.183Z,99.99
2023-03-11T00:44:28.169Z,99.99
2023-03-11T00:45:28.320Z,99.99
2023-03-11T00:46:28.273Z,99.99
2023-03-11T00:47:28.261Z,99.99
2023-03-11T00:48:28.125Z,99.99
2023-03-11T00:49:28.110Z,99.99
2023-03-11T00:50:28.155Z,99.99
2023-03-11T00:51:28.192Z,99.99
2023-03-11T00:52:28.149Z,99.99
2023-03-11T00:53:28.275Z,99.99
2023-03-11T00:54:28.316Z,99.99
2023-03-11T00:55:28.120Z,99.99
2023-03-11T00:56:28.069Z,99.99
2023-03-11T00:57:28.116Z,99.99
2023-03-11T00:58:28.036Z,99.99
2023-03-11T00:59:28.388Z,99.99
2023-03-11T01:00:28.088Z,99.99
2023-03-11T01:01:28.188Z,99.99
2023-03-11T01:02:27.988Z,99.99
2023-03-11T01:03:28.027Z,99.99
2023-03-11T01:04:28.247Z,99.99
2023-03-11T01:05:27.964Z,99.99
2023-03-11T01:06:35.907Z,99.99
2023-03-11T01:07:28.163Z,99.99
2023-03-11T01:08:28.148Z,99.99
2023-03-11T01:09:27.995Z,99.99
2023-03-11T01:10:27.934Z,99.99
2023-03-11T01:11:27.932Z,99.99
2023-03-11T01:12:27.988Z,99.99
2023-03-11T01:13:27.891Z,99.99
2023-03-11T01:14:27.903Z,99.99
2023-03-11T01:15:27.949Z,99.99
2023-03-11T01:16:27.898Z,99.99
2023-03-11T01:17:28.302Z,99.99
2023-03-11T01:18:28.084Z,99.99
2023-03-11T01:19:28.294Z,99.99
2023-03-11T01:20:27.831Z,99.99
2023-03-11T01:21:28.003Z,99.99
2023-03-11T01:22:27.925Z,99.99
2023-03-11T01:23:27.872Z,99.99
2023-03-11T01:24:28.018Z,99.99
2023-03-11T01:25:27.806Z,99.99
2023-03-11T01:26:28.028Z,99.99
2023-03-11T01:27:27.831Z,99.99
2023-03-11T01:28:27.733Z,99.99
2023-03-11T01:29:27.750Z,99.99
2023-03-11T01:30:27.709Z,99.99
2023-03-11T01:31:27.938Z,99.99
2023-03-11T01:32:28.014Z,99.99
2023-03-11T01:33:27.724Z,99.99
2023-03-11T01:34:28.101Z,99.99
2023-03-11T01:35:27.795Z,99.99
2023-03-11T01:36:27.671Z,99.99
2023-03-11T01:37:28.018Z,99.99
2023-03-11T01:38:27.648Z,99.99
2023-03-11T01:39:27.734Z,99.99
2023-03-11T01:40:27.642Z,99.99
2023-03-11T01:41:27.703Z,99.99
2023-03-11T01:42:27.837Z,99.99
2023-03-11T01:43:27.600Z,99.99
2023-03-11T01:44:27.673Z,99.99
2023-03-11T01:45:27.714Z,99.99
2023-03-11T01:46:27.619Z,99.99
2023-03-11T01:47:27.552Z,99.99
2023-03-11T01:48:27.529Z,99.99
2023-03-11T01:49:27.760Z,99.99
2023-03-11T01:50:27.536Z,99.99
2023-03-11T01:51:27.600Z,99.99
2023-03-11T01:52:27.574Z,99.99
2023-03-11T01:53:27.705Z,99.99
2023-03-11T01:54:27.547Z,99.99
2023-03-11T01:55:27.566Z,99.99
2023-03-11T01:56:27.463Z,99.99
2023-03-11T01:57:27.530Z,99.99
2023-03-11T01:58:27.511Z,99.99
2023-03-11T01:59:27.485Z,99.99
2023-03-11T02:00:27.454Z,99.99
2023-03-11T02:01:27.600Z,99.99
2023-03-11T02:02:27.468Z,99.99
2023-03-11T02:03:27.649Z,99.99
2023-03-11T02:04:27.494Z,99.99
2023-03-11T02:05:27.483Z,99.99
2023-03-11T02:06:27.556Z,99.99
2023-03-11T02:07:27.607Z,99.99
2023-03-11T02:08:27.674Z,99.99
2023-03-11T02:09:27.609Z,99.99
2023-03-11T02:10:27.472Z,99.99
2023-03-11T02:11:27.538Z,99.99
2023-03-11T02:12:27.510Z,99.99
2023-03-11T02:13:27.445Z,99.99
2023-03-11T02:14:27.659Z,99.99
2023-03-11T02:15:27.400Z,99.99
2023-03-11T02:16:27.498Z,99.99
2023-03-11T02:17:27.296Z,99.99
2023-03-11T02:18:27.419Z,99.99
2023-03-11T02:19:27.279Z,99.99
2023-03-11T02:20:27.252Z,99.99
2023-03-11T02:21:27.318Z,99.99
2023-03-11T02:22:27.340Z,99.99
2023-03-11T02:23:27.265Z,99.99
2023-03-11T02:24:27.247Z,99.99
2023-03-11T02:25:27.244Z,99.99
2023-03-11T02:26:27.604Z,99.99
2023-03-11T02:27:27.467Z,99.99
2023-03-11T02:28:27.383Z,99.99
2023-03-11T02:29:27.294Z,99.99
2023-03-11T02:30:27.278Z,99.99
2023-03-11T02:31:27.406Z,99.99
2023-03-11T02:32:27.224Z,99.99
2023-03-11T02:33:27.348Z,99.99
2023-03-11T02:34:27.313Z,99.99
2023-03-11T02:35:27.533Z,99.99
2023-03-11T02:36:27.120Z,99.99
2023-03-11T02:37:27.099Z,99.99
2023-03-11T02:38:27.134Z,99.99
2023-03-11T02:39:27.215Z,99.99
2023-03-11T02:40:27.220Z,99.99
2023-03-11T02:41:27.181Z,99.99
2023-03-11T02:42:27.234Z,99.99
2023-03-11T02:43:27.105Z,99.99
2023-03-11T02:44:27.101Z,99.99
2023-03-11T02:45:27.197Z,99.99
2023-03-11T02:46:27.290Z,99.99
2023-03-11T02:47:27.212Z,99.99
2023-03-11T02:48:27.049Z,99.99
2023-03-11T02:49:27.040Z,99.99
2023-03-11T02:50:26.973Z,99.99
2023-03-11T02:51:27.249Z,99.99
2023-03-11T02:52:27.120Z,99.99
2023-03-11T02:53:27.008Z,99.99
2023-03-11T02:54:26.991Z,99.99
2023-03-11T02:55:26.965Z,99.99
2023-03-11T02:56:27.202Z,99.99
2023-03-11T02:57:27.124Z,99.99
2023-03-11T02:58:27.093Z,99.99
2023-03-11T02:59:27.053Z,99.99
2023-03-11T03:00:26.875Z,99.99
2023-03-11T03:01:26.910Z,99.99
2023-03-11T03:02:27.087Z,99.99
2023-03-11T03:03:27.099Z,99.99
2023-03-11T03:04:26.889Z,99.99
2023-03-11T03:05:26.941Z,99.99
2023-03-11T03:06:27.037Z,99.99
2023-03-11T03:07:26.942Z,99.99
2023-03-11T03:08:26.874Z,99.99
2023-03-11T03:09:27.020Z,99.99
2023-03-11T03:10:26.795Z,99.99
2023-03-11T03:11:26.918Z,99.99
2023-03-11T03:12:26.759Z,99.99
2023-03-11T03:13:26.853Z,99.99
2023-03-11T03:14:26.737Z,99.99
2023-03-11T03:15:26.791Z,99.99
2023-03-11T03:16:26.790Z,99.99
2023-03-11T03:17:26.762Z,99.99
2023-03-11T03:18:26.707Z,99.99
2023-03-11T03:19:26.686Z,99.99
2023-03-11T03:20:26.717Z,99.99
2023-03-11T03:21:26.684Z,99.99
2023-03-11T03:22:27.005Z,99.99
2023-03-11T03:23:26.656Z,99.99
2023-03-11T03:24:26.743Z,99.99
2023-03-11T03:25:26.805Z,99.99
2023-03-11T03:26:26.606Z,99.99
2023-03-11T03:27:26.662Z,99.99
2023-03-11T03:28:26.713Z,99.99
2023-03-11T03:29:26.637Z,99.99
2023-03-11T03:30:26.733Z,99.99
2023-03-11T03:31:26.715Z,99.99
2023-03-11T03:32:26.704Z,99.99
2023-03-11T03:33:26.671Z,99.99
2023-03-11T03:34:26.557Z,99.99
2023-03-11T03:35:26.567Z,99.99
2023-03-11T03:36:26.739Z,99.99
2023-03-11T03:37:26.547Z,99.99
2023-03-11T03:38:26.499Z,99.99
2023-03-11T03:39:28.205Z,99.99
2023-03-11T03:40:26.638Z,99.99
2023-03-11T03:41:26.744Z,99.99
2023-03-11T03:42:26.489Z,99.99
2023-03-11T03:43:26.450Z,99.99
2023-03-11T03:44:26.486Z,99.99
2023-03-11T03:45:27.236Z,99.99
2023-03-11T03:46:26.530Z,99.99
2023-03-11T03:47:26.555Z,99.99
2023-03-11T03:48:26.383Z,99.99
2023-03-11T03:49:26.442Z,99.99
2023-03-11T03:50:26.374Z,99.99
2023-03-11T03:51:26.415Z,99.99
2023-03-11T03:52:26.463Z,99.99
2023-03-11T03:53:26.355Z,99.99
2023-03-11T03:54:26.373Z,99.99
2023-03-11T03:55:26.498Z,99.99
2023-03-11T03:56:26.360Z,99.99
2023-03-11T03:57:26.536Z,99.99
2023-03-11T03:58:26.302Z,99.99
2023-03-11T03:59:26.296Z,99.99
2023-03-11T04:00:26.321Z,99.99
2023-03-11T04:01:26.496Z,99.99
2023-03-11T04:02:26.335Z,99.99
2023-03-11T04:03:26.431Z,99.99
2023-03-11T04:04:26.514Z,99.99
2023-03-11T04:05:26.245Z,99.99
2023-03-11T04:06:26.243Z,99.99
2023-03-11T04:07:26.268Z,99.99
2023-03-11T04:08:26.271Z,99.99
2023-03-11T04:09:26.322Z,99.99
2023-03-11T04:10:26.712Z,99.99
2023-03-11T04:11:26.263Z,99.99
2023-03-11T04:12:26.295Z,99.99
2023-03-11T04:13:26.700Z,99.99
2023-03-11T04:14:26.808Z,99.99
2023-03-11T04:15:26.193Z,99.99
2023-03-11T04:16:26.241Z,99.99
2023-03-11T04:17:26.108Z,99.99
2023-03-11T04:18:26.130Z,99.99
2023-03-11T04:19:26.332Z,99.99
2023-03-11T04:20:26.156Z,99.99
2023-03-11T04:21:26.184Z,99.99
2023-03-11T04:22:26.091Z,99.99
2023-03-11T04:23:26.518Z,99.99
2023-03-11T04:24:26.068Z,99.99
2023-03-11T04:25:26.054Z,99.99
2023-03-11T04:26:26.074Z,99.99
2023-03-11T04:27:26.209Z,99.99
2023-03-11T04:28:26.230Z,99.99
2023-03-11T04:29:26.199Z,99.99
2023-03-11T04:30:25.997Z,99.99
2023-03-11T04:31:26.231Z,99.99
2023-03-11T04:32:26.027Z,99.99
2023-03-11T04:33:26.153Z,99.99
2023-03-11T04:34:26.113Z,99.99
2023-03-11T04:35:26.375Z,99.99
2023-03-11T04:36:26.128Z,99.99
2023-03-11T04:37:25.915Z,99.99
2023-03-11T04:38:25.957Z,99.99
2023-03-11T04:39:26.568Z,99.99
2023-03-11T04:40:26.038Z,99.99
2023-03-11T04:41:26.035Z,99.99
2023-03-11T04:42:26.040Z,99.99
2023-03-11T04:43:25.894Z,99.99
2023-03-11T04:44:25.924Z,99.99
2023-03-11T04:45:26.171Z,99.99
2023-03-11T04:46:25.894Z,99.99
2023-03-11T04:47:25.985Z,99.99
2023-03-11T04:48:25.824Z,99.99
2023-03-11T04:49:25.864Z,99.99
2023-03-11T04:50:25.963Z,99.99
2023-03-11T04:51:25.864Z,99.99
2023-03-11T04:52:25.913Z,99.99
2023-03-11T04:53:25.930Z,99.99
2023-03-11T04:54:25.922Z,99.99
2023-03-11T04:55:25.823Z,99.99
2023-03-11T04:56:25.869Z,99.99
2023-03-11T04:57:25.946Z,99.99
2023-03-11T04:58:25.741Z,99.99
2023-03-11T04:59:25.816Z,99.99
2023-03-11T05:00:25.706Z,99.99
2023-03-11T05:01:25.745Z,99.99
2023-03-11T05:02:25.694Z,99.99
2023-03-11T05:03:25.789Z,99.99
2023-03-11T05:04:25.702Z,99.99
2023-03-11T05:05:25.841Z,99.99
2023-03-11T05:06:26.269Z,99.99
2023-03-11T05:07:25.659Z,99.99
2023-03-11T05:08:25.724Z,99.99
2023-03-11T05:09:26.232Z,99.99
2023-03-11T05:10:25.650Z,99.99
2023-03-11T05:11:25.628Z,99.99
2023-03-11T05:12:25.758Z,99.99
2023-03-11T05:13:25.554Z,99.99
2023-03-11T05:14:25.946Z,99.99
2023-03-11T05:15:25.707Z,99.99
2023-03-11T05:16:25.700Z,99.99
2023-03-11T05:17:25.556Z,99.99
2023-03-11T05:18:25.519Z,99.99
2023-03-11T05:19:25.516Z,99.99
2023-03-11T05:20:25.512Z,99.99
2023-03-11T05:21:25.615Z,99.99
2023-03-11T05:22:25.495Z,99.99
2023-03-11T05:23:25.702Z,99.99
2023-03-11T05:24:26.519Z,99.99
2023-03-11T05:25:25.459Z,99.99
2023-03-11T05:26:25.555Z,99.99
2023-03-11T05:27:25.443Z,99.99
2023-03-11T05:28:25.666Z,99.99
2023-03-11T05:29:25.457Z,99.99
2023-03-11T05:30:25.616Z,99.99
2023-03-11T05:31:25.423Z,99.99
2023-03-11T05:32:25.790Z,99.99
2023-03-11T05:33:25.796Z,99.99
2023-03-11T05:34:25.398Z,99.99
2023-03-11T05:35:25.430Z,99.99
2023-03-11T05:36:25.442Z,99.99
2023-03-11T05:37:25.356Z,99.99
2023-03-11T05:38:25.332Z,99.99
2023-03-11T05:39:25.418Z,99.99
2023-03-11T05:40:25.342Z,99.99
2023-03-11T05:41:25.515Z,99.99
2023-03-11T05:42:25.317Z,99.99
2023-03-11T05:43:25.300Z,99.99
2023-03-11T05:44:25.363Z,99.99
2023-03-11T05:45:25.569Z,99.99
2023-03-11T05:46:25.300Z,99.99
2023-03-11T05:47:25.303Z,99.99
2023-03-11T05:48:25.271Z,99.99
2023-03-11T05:49:25.310Z,99.99
2023-03-11T05:50:25.368Z,99.99
2023-03-11T05:51:25.375Z,99.99
2023-03-11T05:52:25.384Z,99.99
2023-03-11T05:53:25.368Z,99.99
2023-03-11T05:54:25.382Z,99.99
2023-03-11T05:55:25.408Z,99.99
2023-03-11T05:56:25.235Z,99.99
2023-03-11T05:57:25.470Z,99.99
2023-03-11T05:58:25.326Z,99.99
2023-03-11T05:59:25.207Z,99.99
2023-03-11T06:00:25.330Z,99.99
2023-03-11T06:01:25.206Z,99.99
2023-03-11T06:02:25.288Z,99.99
2023-03-11T06:03:25.127Z,99.99
2023-03-11T06:04:25.418Z,99.99
2023-03-11T06:05:25.213Z,99.99
2023-03-11T06:06:25.066Z,99.99
2023-03-11T06:07:25.059Z,99.99
2023-03-11T06:08:25.028Z,99.99
2023-03-11T06:09:25.090Z,99.99
2023-03-11T06:10:25.050Z,99.99
2023-03-11T06:11:25.034Z,99.99
2023-03-11T06:12:25.005Z,99.99
2023-03-11T06:13:25.317Z,99.99
2023-03-11T06:14:25.198Z,99.99
2023-03-11T06:15:25.367Z,99.99
2023-03-11T06:16:25.607Z,99.99
2023-03-11T06:17:25.237Z,99.99
2023-03-11T06:18:25.133Z,99.99
2023-03-11T06:19:25.238Z,99.99
2023-03-11T06:20:25.112Z,99.99
2023-03-11T06:21:24.973Z,99.99
2023-03-11T06:22:26.029Z,99.99
2023-03-11T06:23:25.093Z,99.99
2023-03-11T06:24:24.890Z,99.99
2023-03-11T06:25:25.137Z,99.99
2023-03-11T06:26:24.922Z,99.99
2023-03-11T06:27:24.926Z,99.99
2023-03-11T06:28:24.886Z,99.99
2023-03-11T06:29:24.821Z,99.99
2023-03-11T06:30:24.818Z,99.99
2023-03-11T06:31:25.048Z,99.99
2023-03-11T06:32:24.848Z,99.99
2023-03-11T06:33:24.933Z,99.99
2023-03-11T06:34:24.887Z,99.99
2023-03-11T06:35:24.788Z,99.99
2023-03-11T06:36:24.786Z,99.99
2023-03-11T06:37:24.759Z,99.99
2023-03-11T06:38:24.838Z,99.99
2023-03-11T06:39:24.785Z,99.99
2023-03-11T06:40:24.755Z,99.99
2023-03-11T06:41:24.839Z,99.99
2023-03-11T06:42:24.774Z,99.99
2023-03-11T06:43:24.719Z,99.99
2023-03-11T06:44:25.002Z,99.99
2023-03-11T06:45:24.735Z,99.99
2023-03-11T06:46:24.889Z,99.99
2023-03-11T06:47:24.871Z,99.99
2023-03-11T06:48:24.749Z,99.99
2023-03-11T06:49:24.675Z,99.99
2023-03-11T06:50:24.683Z,99.99
2023-03-11T06:51:24.665Z,99.99
2023-03-11T06:52:24.622Z,99.99
2023-03-11T06:53:24.756Z,99.99
2023-03-11T06:54:24.589Z,99.99
2023-03-11T06:55:24.811Z,99.99
2023-03-11T06:56:24.563Z,99.99
2023-03-11T06:57:24.811Z,99.99
2023-03-11T06:58:24.731Z,99.99
2023-03-11T06:59:24.623Z,99.99
2023-03-11T07:00:24.621Z,99.99
2023-03-11T07:01:24.574Z,99.99
2023-03-11T07:02:24.533Z,99.99
2023-03-11T07:03:24.546Z,99.99
2023-03-11T07:04:24.531Z,99.99
2023-03-11T07:05:24.500Z,99.99
2023-03-11T07:06:24.653Z,99.99
2023-03-11T07:07:24.502Z,99.99
2023-03-11T07:08:24.473Z,99.99
2023-03-11T07:09:24.620Z,99.99
2023-03-11T07:10:24.441Z,99.99
2023-03-11T07:11:24.611Z,99.99
2023-03-11T07:12:24.604Z,99.99
2023-03-11T07:13:24.551Z,99.99
2023-03-11T07:14:24.435Z,99.99
2023-03-11T07:15:24.461Z,99.99
2023-03-11T07:16:24.491Z,99.99
2023-03-11T07:17:24.604Z,99.99
2023-03-11T07:18:24.438Z,99.99
2023-03-11T07:19:24.565Z,99.40
2023-03-11T07:20:24.474Z,98.21
2023-03-11T07:21:24.509Z,97.80
2023-03-11T07:22:24.335Z,96.20
2023-03-11T07:23:24.678Z,97.39
2023-03-11T07:24:24.561Z,96.67
2023-03-11T07:25:24.569Z,92.63
2023-03-11T07:26:24.488Z,94.24
2023-03-11T07:27:24.305Z,93.33
2023-03-11T07:28:24.397Z,88.30
2023-03-11T07:29:24.296Z,90.16
2023-03-11T07:30:24.458Z,93.48
2023-03-11T07:31:24.330Z,91.45
2023-03-11T07:32:24.477Z,94.62
2023-03-11T07:33:24.442Z,95.71
2023-03-11T07:34:24.239Z,92.61
2023-03-11T07:35:24.218Z,90.64
2023-03-11T07:36:24.197Z,92.40
2023-03-11T07:37:24.330Z,94.98
2023-03-11T07:38:24.364Z,94.06
2023-03-11T07:39:24.288Z,92.30
2023-03-11T07:40:24.515Z,95.62
2023-03-11T07:41:24.291Z,97.44
2023-03-11T07:42:24.146Z,92.99
2023-03-11T07:43:24.156Z,90.83
2023-03-11T07:44:24.150Z,89.95
2023-03-11T07:45:24.131Z,84.15
2023-03-11T07:46:24.151Z,91.75
2023-03-11T07:47:24.111Z,94.81
2023-03-11T07:48:24.398Z,93.12
2023-03-11T07:49:24.380Z,94.52
2023-03-11T07:50:24.269Z,84.72
2023-03-11T07:51:24.266Z,87.50
2023-03-11T07:52:24.055Z,87.46
2023-03-11T07:53:24.221Z,84.06
2023-03-11T07:54:23.998Z,85.50
2023-03-11T07:55:24.026Z,84.13
2023-03-11T07:56:24.033Z,87.92
2023-03-11T07:57:24.028Z,90.55
2023-03-11T07:58:24.000Z,89.44
2023-03-11T07:59:23.960Z,87.96
2023-03-11T08:00:23.975Z,88.33
2023-03-11T08:01:24.006Z,82.46
2023-03-11T08:02:24.009Z,81.84
2023-03-11T08:03:24.545Z,83.28
2023-03-11T08:04:23.914Z,82.93
2023-03-11T08:05:23.928Z,79.06
2023-03-11T08:06:23.891Z,83.18
2023-03-11T08:07:23.900Z,86.68
2023-03-11T08:08:23.990Z,88.59
2023-03-11T08:09:24.055Z,86.43
2023-03-11T08:10:23.937Z,81.33
2023-03-11T08:11:24.029Z,84.62
2023-03-11T08:12:23.887Z,82.77
2023-03-11T08:13:23.836Z,85.14
2023-03-11T08:14:23.811Z,82.15
2023-03-11T08:15:23.922Z,86.74
2023-03-11T08:16:23.876Z,78.24
2023-03-11T08:17:24.301Z,83.86
2023-03-11T08:18:23.776Z,84.34
2023-03-11T08:19:23.778Z,82.48
2023-03-11T08:20:23.766Z,76.66
2023-03-11T08:21:23.953Z,79.95
2023-03-11T08:22:23.734Z,73.40
2023-03-11T08:23:23.756Z,75.49
2023-03-11T08:24:23.717Z,82.91
2023-03-11T08:25:23.730Z,80.44
2023-03-11T08:26:23.694Z,75.46
2023-03-11T08:27:24.055Z,77.11
2023-03-11T08:28:23.998Z,80.68
2023-03-11T08:29:23.802Z,79.30
2023-03-11T08:30:23.630Z,76.90
2023-03-11T08:31:23.717Z,87.87
2023-03-11T08:32:23.791Z,80.08
2023-03-11T08:33:23.731Z,73.44
2023-03-11T08:34:23.612Z,78.64
2023-03-11T08:35:23.564Z,83.54
2023-03-11T08:36:23.586Z,78.88
2023-03-11T08:37:24.443Z,73.40
2023-03-11T08:38:23.796Z,77.88
2023-03-11T08:39:23.582Z,69.43
2023-03-11T08:40:23.713Z,80.23
2023-03-11T08:41:23.659Z,72.86
2023-03-11T08:42:23.544Z,70.40
2023-03-11T08:43:23.527Z,68.96
2023-03-11T08:44:23.692Z,67.76
2023-03-11T08:45:23.551Z,68.24
2023-03-11T08:46:23.508Z,74.29
2023-03-11T08:47:23.500Z,73.19
2023-03-11T08:48:23.688Z,73.81
2023-03-11T08:49:23.720Z,74.63
2023-03-11T08:50:23.446Z,73.78
2023-03-11T08:52:50.751Z,70.62
2023-03-11T08:52:55.768Z,70.04
2023-03-11T08:53:55.885Z,70.22
2023-03-11T08:54:55.758Z,71.01
2023-03-11T08:55:55.631Z,66.63
2023-03-11T08:56:55.689Z,70.46
2023-03-11T08:57:55.693Z,75.01
2023-03-11T08:58:55.727Z,67.75
2023-03-11T08:59:55.707Z,68.19
2023-03-11T09:00:55.646Z,67.98
2023-03-11T09:01:55.553Z,68.19
2023-03-11T09:02:56.052Z,76.93
2023-03-11T09:03:55.550Z,68.10
2023-03-11T09:04:55.554Z,66.76
2023-03-11T09:05:55.612Z,71.66
2023-03-11T09:06:55.556Z,73.19
2023-03-11T09:07:55.532Z,72.34
2023-03-11T09:08:55.971Z,67.08
2023-03-11T09:09:55.502Z,73.47
2023-03-11T09:10:55.591Z,70.16
2023-03-11T09:11:55.908Z,74.56
2023-03-11T09:12:55.485Z,74.35
2023-03-11T09:13:55.464Z,66.25
2023-03-11T09:14:55.471Z,69.38
2023-03-11T09:15:55.538Z,63.67
2023-03-11T09:16:55.429Z,57.86
2023-03-11T09:17:55.826Z,69.45
2023-03-11T09:18:55.520Z,69.14
2023-03-11T09:19:55.402Z,65.97
2023-03-11T09:20:55.528Z,59.27
2023-03-11T09:21:55.393Z,59.00
2023-03-11T09:22:55.602Z,63.88
2023-03-11T09:23:55.439Z,61.83
2023-03-11T09:24:55.371Z,61.19
2023-03-11T09:25:55.422Z,59.32
2023-03-11T09:26:55.370Z,63.04
2023-03-11T09:27:55.458Z,59.03
2023-03-11T09:28:55.352Z,60.97
2023-03-11T09:29:55.404Z,58.60
2023-03-11T09:30:55.465Z,63.31
2023-03-11T09:31:55.430Z,52.19
2023-03-11T09:32:55.487Z,54.80
2023-03-11T09:33:55.430Z,57.93
2023-03-11T09:34:55.352Z,57.37
2023-03-11T09:35:55.334Z,54.59
2023-03-11T09:36:55.393Z,61.68
2023-03-11T09:37:55.221Z,63.22
2023-03-11T09:38:55.371Z,52.33
2023-03-11T09:39:55.187Z,54.69
2023-03-11T09:40:55.259Z,47.78
2023-03-11T09:41:58.781Z,47.31
2023-03-11T09:42:55.319Z,47.11
2023-03-11T09:43:55.244Z,51.75
2023-03-11T09:44:55.263Z,47.58
2023-03-11T09:45:55.146Z,50.68
2023-03-11T09:46:55.591Z,50.91
2023-03-11T09:47:55.191Z,45.90
2023-03-11T09:48:55.118Z,44.68
2023-03-11T09:49:55.114Z,42.78
2023-03-11T09:50:55.243Z,41.60
2023-03-11T09:51:55.257Z,45.66
2023-03-11T09:52:55.075Z,44.63
2023-03-11T09:53:55.219Z,44.38
2023-03-11T09:54:55.113Z,44.69
2023-03-11T09:55:55.065Z,45.87
2023-03-11T09:56:55.068Z,50.23
2023-03-11T09:57:55.284Z,41.38
2023-03-11T09:58:55.202Z,43.61
2023-03-11T09:59:55.042Z,50.61
2023-03-11T10:00:55.056Z,43.10
2023-03-11T10:01:55.055Z,40.56
2023-03-11T10:02:55.222Z,45.42
2023-03-11T10:03:55.346Z,41.26
2023-03-11T10:04:54.956Z,39.94
2023-03-11T10:05:55.031Z,41.91
2023-03-11T10:06:54.940Z,42.35
2023-03-11T10:07:54.917Z,43.29
2023-03-11T10:08:55.320Z,45.04
2023-03-11T10:09:54.917Z,45.70
2023-03-11T10:10:54.912Z,48.80
2023-03-11T10:11:54.904Z,47.61
2023-03-11T10:12:54.979Z,52.33
2023-03-11T10:13:55.050Z,53.33
2023-03-11T10:14:55.033Z,54.03
2023-03-11T10:15:54.839Z,50.81
2023-03-11T10:16:54.823Z,47.74
2023-03-11T10:17:55.023Z,48.36
2023-03-11T10:18:55.017Z,48.86
2023-03-11T10:19:55.181Z,46.24
2023-03-11T10:20:54.817Z,48.42
2023-03-11T10:21:55.008Z,46.13
2023-03-11T10:22:54.795Z,37.16
2023-03-11T10:23:54.900Z,40.70
2023-03-11T10:24:54.935Z,39.13
2023-03-11T10:25:54.721Z,42.86
2023-03-11T10:26:54.734Z,39.10
2023-03-11T10:27:54.916Z,43.30
2023-03-11T10:28:54.931Z,39.30
2023-03-11T10:29:54.823Z,40.98
2023-03-11T10:30:54.677Z,44.57
2023-03-11T10:31:54.814Z,44.59
2023-03-11T10:32:54.742Z,38.78
2023-03-11T10:33:54.656Z,39.79
2023-03-11T10:34:54.747Z,41.18
2023-03-11T10:35:54.667Z,36.24
2023-03-11T10:36:54.786Z,41.63
2023-03-11T10:37:54.799Z,37.76
2023-03-11T10:38:55.239Z,40.36
2023-03-11T10:39:54.577Z,43.71
2023-03-11T10:40:54.583Z,41.76
2023-03-11T10:41:54.707Z,42.27
2023-03-11T10:42:54.620Z,44.57
2023-03-11T10:43:54.611Z,46.45
2023-03-11T10:44:54.581Z,49.07
2023-03-11T10:45:54.774Z,48.40
2023-03-11T10:46:54.674Z,46.62
2023-03-11T10:47:54.523Z,50.15
2023-03-11T10:48:54.493Z,51.64
2023-03-11T10:49:54.470Z,51.35
2023-03-11T10:50:54.511Z,53.25
2023-03-11T10:51:54.531Z,54.00
2023-03-11T10:52:54.870Z,57.26
2023-03-11T10:53:54.480Z,52.45
2023-03-11T10:54:54.607Z,51.68
2023-03-11T10:55:54.540Z,55.80
2023-03-11T10:56:54.451Z,53.89
2023-03-11T10:57:54.414Z,57.03
2023-03-11T10:58:54.603Z,54.23
2023-03-11T10:59:54.738Z,51.42
2023-03-11T11:00:54.533Z,56.70
2023-03-11T11:01:54.533Z,57.80
2023-03-11T11:02:54.459Z,52.22
2023-03-11T11:03:54.375Z,50.50
2023-03-11T11:04:54.428Z,52.76
2023-03-11T11:05:54.394Z,53.79
2023-03-11T11:06:54.556Z,57.98
2023-03-11T11:07:54.354Z,55.79
2023-03-11T11:08:54.667Z,52.82
2023-03-11T11:09:54.600Z,58.86
2023-03-11T11:10:54.266Z,48.28
2023-03-11T11:11:54.251Z,49.69
2023-03-11T11:12:54.364Z,55.10
2023-03-11T11:13:54.243Z,45.93
2023-03-11T11:14:54.292Z,41.93
2023-03-11T11:15:54.360Z,46.18
2023-03-11T11:16:54.441Z,38.12
2023-03-11T11:17:54.420Z,39.87
2023-03-11T11:18:54.854Z,43.49
2023-03-11T11:19:54.476Z,42.84
2023-03-11T11:20:54.231Z,39.95
2023-03-11T11:21:54.317Z,36.81
2023-03-11T11:22:54.416Z,41.52
2023-03-11T11:23:54.237Z,38.04
2023-03-11T11:24:54.337Z,38.50
2023-03-11T11:25:54.135Z,40.75
2023-03-11T11:26:54.215Z,38.27
2023-03-11T11:27:54.289Z,45.05
2023-03-11T11:28:54.330Z,38.45
2023-03-11T11:29:54.489Z,41.62
2023-03-11T11:30:54.218Z,42.29
2023-03-11T11:31:54.093Z,42.17
2023-03-11T11:32:54.384Z,38.25
2023-03-11T11:33:54.251Z,37.80
2023-03-11T11:34:54.073Z,37.51
2023-03-11T11:35:54.383Z,41.94
2023-03-11T11:36:54.181Z,40.14
2023-03-11T11:37:54.019Z,38.01
2023-03-11T11:38:54.277Z,38.05
2023-03-11T11:39:53.966Z,38.96
2023-03-11T11:40:53.993Z,35.64
2023-03-11T11:41:53.955Z,40.30
2023-03-11T11:42:54.059Z,47.87
2023-03-11T11:43:54.031Z,43.12
2023-03-11T11:44:53.974Z,40.98
2023-03-11T11:45:54.083Z,36.77
2023-03-11T11:46:53.877Z,34.19
2023-03-11T11:47:53.889Z,40.40
2023-03-11T11:48:53.873Z,43.75
2023-03-11T11:49:53.862Z,41.07
2023-03-11T11:50:54.026Z,41.82
2023-03-11T11:51:53.917Z,42.43
2023-03-11T11:52:53.835Z,43.10
2023-03-11T11:53:53.833Z,44.73
2023-03-11T11:54:53.810Z,44.78
2023-03-11T11:55:53.806Z,47.61
2023-03-11T11:56:53.885Z,49.29
2023-03-11T11:57:53.987Z,52.15
2023-03-11T11:58:53.911Z,41.52
2023-03-11T11:59:55.429Z,42.23
2023-03-11T12:00:53.762Z,45.35
2023-03-11T12:01:53.839Z,40.67
2023-03-11T12:02:53.937Z,37.84
2023-03-11T12:03:53.826Z,39.52
2023-03-11T12:04:53.694Z,40.72
2023-03-11T12:05:55.541Z,35.88
2023-03-11T12:06:53.690Z,33.98
2023-03-11T12:07:53.797Z,33.24
2023-03-11T12:08:53.939Z,37.08
2023-03-11T12:09:53.668Z,33.29
2023-03-11T12:10:53.710Z,35.01
2023-03-11T12:11:53.683Z,34.70
2023-03-11T12:12:53.642Z,34.94
2023-03-11T12:13:53.698Z,41.00
2023-03-11T12:14:53.689Z,36.29
2023-03-11T12:15:53.884Z,35.02
2023-03-11T12:16:53.704Z,37.88
2023-03-11T12:17:53.670Z,40.73
2023-03-11T12:18:53.699Z,36.47
2023-03-11T12:19:53.614Z,37.16
2023-03-11T12:20:53.646Z,36.68
2023-03-11T12:21:53.710Z,41.22
2023-03-11T12:22:53.595Z,41.09
2023-03-11T12:23:55.039Z,42.21
2023-03-11T12:24:53.659Z,40.86
2023-03-11T12:25:53.510Z,37.95
2023-03-11T12:26:53.798Z,34.45
2023-03-11T12:27:53.644Z,31.48
2023-03-11T12:28:53.508Z,34.11
2023-03-11T12:29:53.819Z,38.41
2023-03-11T12:30:53.681Z,37.93
2023-03-11T12:31:53.463Z,37.87
2023-03-11T12:32:53.725Z,35.75
2023-03-11T12:33:53.430Z,35.11
2023-03-11T12:34:53.425Z,34.64
2023-03-11T12:35:53.605Z,33.54
2023-03-11T12:36:53.561Z,36.52
2023-03-11T12:37:53.591Z,35.10
2023-03-11T12:38:53.544Z,35.57
2023-03-11T12:39:53.528Z,32.29
2023-03-11T12:40:53.526Z,34.84
2023-03-11T12:41:53.410Z,34.67
2023-03-11T12:42:53.525Z,34.27
2023-03-11T12:43:53.317Z,37.15
2023-03-11T12:44:53.331Z,31.78
2023-03-11T12:45:53.366Z,33.87
2023-03-11T12:46:53.405Z,31.12
2023-03-11T12:47:53.466Z,30.15
2023-03-11T12:48:53.258Z,32.55
2023-03-11T12:49:53.291Z,34.91
2023-03-11T12:50:53.326Z,33.06
2023-03-11T12:51:53.233Z,29.97
2023-03-11T12:52:53.231Z,32.97